createdAt,value
2022-11-04T00:02:08.007Z,11.50
2022-11-04T00:04:34.879Z,11.50
2022-11-04T00:07:01.657Z,11.50
2022-11-04T00:09:30.160Z,11.40
2022-11-04T00:12:16.373Z,11.40
2022-11-04T00:14:43.478Z,11.40
2022-11-04T00:17:19.815Z,11.40
2022-11-04T00:20:12.875Z,11.30
2022-11-04T00:22:59.894Z,11.30
2022-11-04T00:25:45.852Z,11.30
2022-11-04T00:28:36.518Z,11.40
2022-11-04T00:31:26.782Z,11.30
2022-11-04T00:33:55.356Z,11.40
2022-11-04T00:36:23.700Z,11.30
2022-11-04T00:38:50.795Z,11.30
2022-11-04T00:41:27.170Z,11.30
2022-11-04T00:43:55.399Z,11.30
2022-11-04T00:46:22.186Z,11.30
2022-11-04T00:48:49.175Z,11.30
2022-11-04T00:51:15.961Z,11.30
2022-11-04T00:53:42.780Z,11.30
2022-11-04T00:56:09.526Z,11.30
2022-11-04T00:58:36.264Z,11.20
2022-11-04T01:01:11.718Z,11.20
2022-11-04T01:03:38.618Z,11.20
2022-11-04T01:06:05.847Z,11.20
2022-11-04T01:08:32.945Z,11.20
2022-11-04T01:11:04.183Z,11.20
2022-11-04T01:13:31.427Z,11.10
2022-11-04T01:16:06.965Z,11.10
2022-11-04T01:18:34.067Z,11.20
2022-11-04T01:21:02.056Z,11.10
2022-11-04T01:23:29.137Z,11.20
2022-11-04T01:25:56.318Z,11.20
2022-11-04T01:28:23.249Z,11.20
2022-11-04T01:30:49.988Z,11.20
2022-11-04T01:33:16.737Z,11.20
2022-11-04T01:35:43.464Z,11.20
2022-11-04T01:38:10.604Z,11.20
2022-11-04T01:40:41.391Z,11.20
2022-11-04T01:43:19.938Z,11.20
2022-11-04T01:46:00.687Z,11.20
2022-11-04T01:48:33.616Z,11.30
2022-11-04T01:51:00.776Z,11.20
2022-11-04T01:53:35.032Z,11.20
2022-11-04T01:56:11.918Z,11.20
2022-11-04T01:58:45.613Z,11.20
2022-11-04T02:01:13.296Z,11.20
2022-11-04T02:03:54.553Z,11.20
2022-11-04T02:06:22.905Z,11.20
2022-11-04T02:08:49.895Z,11.20
2022-11-04T02:11:35.178Z,11.20
2022-11-04T02:14:02.712Z,11.20
2022-11-04T02:16:44.040Z,11.20
2022-11-04T02:19:13.805Z,11.20
2022-11-04T02:22:07.969Z,11.20
2022-11-04T02:24:48.827Z,11.20
2022-11-04T02:27:32.695Z,11.20
2022-11-04T02:30:15.534Z,11.20
2022-11-04T02:33:06.734Z,11.20
2022-11-04T02:35:57.136Z,11.20
2022-11-04T02:38:32.195Z,11.20
2022-11-04T02:41:10.048Z,11.20
2022-11-04T02:43:55.371Z,11.20
2022-11-04T02:46:35.769Z,11.20
2022-11-04T02:49:15.899Z,11.20
2022-11-04T02:51:57.920Z,11.20
2022-11-04T02:54:37.398Z,11.20
2022-11-04T02:57:08.855Z,11.10
2022-11-04T02:59:40.815Z,11.20
2022-11-04T03:02:17.075Z,11.10
2022-11-04T03:04:48.293Z,11.20
2022-11-04T03:07:20.595Z,11.10
2022-11-04T03:09:52.293Z,11.20
2022-11-04T03:12:23.014Z,11.20
2022-11-04T03:14:54.880Z,11.20
2022-11-04T03:17:47.674Z,11.10
2022-11-04T03:20:22.910Z,11.20
2022-11-04T03:22:49.914Z,11.10
2022-11-04T03:25:16.842Z,11.10
2022-11-04T03:28:04.135Z,11.10
2022-11-04T03:30:43.470Z,11.10
2022-11-04T03:33:50.164Z,11.10
2022-11-04T03:36:17.892Z,11.10
2022-11-04T03:38:45.101Z,11.10
2022-11-04T03:41:31.010Z,11.10
2022-11-04T03:43:57.714Z,11.00
2022-11-04T03:46:25.427Z,11.10
2022-11-04T03:48:53.835Z,11.10
2022-11-04T03:51:20.568Z,11.10
2022-11-04T03:53:47.933Z,11.10
2022-11-04T03:56:52.227Z,11.10
2022-11-04T03:59:34.605Z,11.10
2022-11-04T04:02:36.285Z,11.00
2022-11-04T04:05:26.328Z,11.00
2022-11-04T04:08:06.291Z,11.00
2022-11-04T04:11:05.029Z,11.00
2022-11-04T04:14:01.907Z,11.00
2022-11-04T04:16:36.189Z,10.90
2022-11-04T04:19:18.807Z,10.90
2022-11-04T04:22:00.693Z,11.00
2022-11-04T04:24:51.815Z,10.90
2022-11-04T04:27:33.511Z,10.90
2022-11-04T04:30:12.293Z,10.90
2022-11-04T04:32:43.626Z,10.80
2022-11-04T04:35:29.201Z,10.90
2022-11-04T04:38:22.106Z,10.80
2022-11-04T04:41:19.669Z,10.80
2022-11-04T04:44:05.136Z,10.80
2022-11-04T04:46:32.724Z,10.70
2022-11-04T04:49:09.601Z,10.70
2022-11-04T04:51:41.933Z,10.70
2022-11-04T04:54:08.686Z,10.70
2022-11-04T04:56:35.367Z,10.60
2022-11-04T04:59:02.098Z,10.60
2022-11-04T05:01:29.086Z,10.60
2022-11-04T05:03:55.870Z,10.70
2022-11-04T05:06:22.619Z,10.60
2022-11-04T05:08:49.308Z,10.60
2022-11-04T05:11:16.011Z,10.60
2022-11-04T05:13:42.685Z,10.60
2022-11-04T05:16:11.532Z,10.50
2022-11-04T05:18:38.302Z,10.60
2022-11-04T05:21:10.836Z,10.50
2022-11-04T05:23:38.072Z,10.50
2022-11-04T05:26:04.899Z,10.50
2022-11-04T05:28:32.198Z,10.50
2022-11-04T05:31:04.166Z,10.50
2022-11-04T05:33:31.013Z,10.40
2022-11-04T05:36:07.047Z,10.40
2022-11-04T05:38:34.141Z,10.50
2022-11-04T05:41:00.936Z,10.40
2022-11-04T05:43:27.935Z,10.40
2022-11-04T05:45:54.944Z,10.30
2022-11-04T05:48:21.769Z,10.30
2022-11-04T05:50:48.618Z,10.40
2022-11-04T05:53:15.345Z,10.30
2022-11-04T05:55:42.051Z,10.30
2022-11-04T05:58:09.042Z,10.30
2022-11-04T06:00:36.028Z,10.30
2022-11-04T06:03:03.041Z,10.30
2022-11-04T06:05:30.127Z,10.20
2022-11-04T06:07:57.084Z,10.20
2022-11-04T06:10:24.692Z,10.30
2022-11-04T06:12:51.469Z,10.20
2022-11-04T06:15:18.204Z,10.20
2022-11-04T06:17:44.914Z,10.30
2022-11-04T06:20:11.823Z,10.30
2022-11-04T06:22:38.525Z,10.20
2022-11-04T06:25:05.451Z,10.30
2022-11-04T06:27:32.136Z,10.30
2022-11-04T06:29:58.914Z,10.20
2022-11-04T06:32:25.663Z,10.50
2022-11-04T06:34:52.339Z,10.30
2022-11-04T06:37:19.026Z,10.40
2022-11-04T06:39:45.695Z,10.40
2022-11-04T06:42:12.509Z,10.40
2022-11-04T06:44:39.166Z,10.40
2022-11-04T06:47:05.913Z,10.30
2022-11-04T06:49:32.611Z,10.30
2022-11-04T06:52:00.726Z,10.30
2022-11-04T06:54:27.397Z,10.20
2022-11-04T06:56:54.075Z,10.00
2022-11-04T06:59:21.901Z,10.00
2022-11-04T07:01:50.732Z,10.10
2022-11-04T07:04:17.678Z,10.10
2022-11-04T07:06:45.010Z,10.00
2022-11-04T07:09:14.324Z,10.00
2022-11-04T07:11:42.337Z,10.10
2022-11-04T07:14:09.598Z,10.00
2022-11-04T07:16:36.417Z,9.90
2022-11-04T07:19:03.854Z,10.00
2022-11-04T07:21:30.563Z,9.90
2022-11-04T07:23:57.778Z,9.90
2022-11-04T07:26:24.679Z,9.90
2022-11-04T07:28:51.457Z,9.80
2022-11-04T07:31:18.593Z,9.80
2022-11-04T07:33:49.993Z,9.90
2022-11-04T07:36:17.895Z,9.90
2022-11-04T07:38:45.279Z,9.80
2022-11-04T07:41:13.099Z,9.80
2022-11-04T07:43:39.930Z,9.80
2022-11-04T07:46:10.732Z,9.80
2022-11-04T07:48:38.261Z,9.80
2022-11-04T07:51:07.186Z,9.80
2022-11-04T07:53:34.379Z,9.80
2022-11-04T07:56:04.880Z,9.80
2022-11-04T07:58:31.883Z,9.80
2022-11-04T08:01:03.974Z,9.80
2022-11-04T08:03:30.695Z,9.90
2022-11-04T08:05:59.416Z,9.90
2022-11-04T08:08:27.236Z,9.90
2022-11-04T08:10:57.005Z,10.00
2022-11-04T08:13:27.106Z,10.00
2022-11-04T08:15:53.915Z,10.00
2022-11-04T08:18:20.671Z,10.10
2022-11-04T08:20:51.986Z,10.10
2022-11-04T08:23:19.045Z,10.10
2022-11-04T08:25:46.340Z,10.10
2022-11-04T08:28:17.573Z,10.20
2022-11-04T08:31:02.160Z,10.10
2022-11-04T08:33:31.234Z,10.30
2022-11-04T08:36:01.984Z,10.30
2022-11-04T08:38:29.257Z,10.40
2022-11-04T08:41:00.658Z,10.40
2022-11-04T08:43:27.701Z,10.40
2022-11-04T08:45:55.067Z,10.50
2022-11-04T08:48:22.344Z,10.60
2022-11-04T08:50:52.315Z,10.60
2022-11-04T08:53:19.468Z,10.50
2022-11-04T08:55:46.511Z,10.60
2022-11-04T08:58:13.387Z,10.60
2022-11-04T09:00:40.387Z,10.60
2022-11-04T09:03:08.471Z,10.80
2022-11-04T09:05:44.731Z,10.70
2022-11-04T09:08:16.742Z,10.70
2022-11-04T09:10:47.829Z,10.70
2022-11-04T09:13:15.876Z,10.80
2022-11-04T09:15:42.891Z,10.80
2022-11-04T09:18:09.851Z,10.70
2022-11-04T09:20:40.011Z,10.70
2022-11-04T09:23:07.089Z,10.80
2022-11-04T09:25:34.983Z,10.70
2022-11-04T09:28:01.769Z,10.70
2022-11-04T09:30:28.686Z,10.70
2022-11-04T09:32:55.471Z,10.80
2022-11-04T09:35:22.707Z,10.70
2022-11-04T09:37:50.639Z,10.80
2022-11-04T09:40:21.267Z,10.90
2022-11-04T09:43:07.143Z,10.90
2022-11-04T09:45:35.061Z,10.80
2022-11-04T09:48:08.550Z,10.90
2022-11-04T09:51:01.791Z,10.90
2022-11-04T09:53:40.656Z,11.00
2022-11-04T09:56:15.083Z,11.00
2022-11-04T09:58:41.803Z,11.00
2022-11-04T10:01:33.564Z,11.10
2022-11-04T10:04:45.087Z,11.10
2022-11-04T10:07:42.672Z,11.10
2022-11-04T10:10:40.278Z,11.30
2022-11-04T10:13:37.744Z,11.40
2022-11-04T10:16:24.901Z,11.30
2022-11-04T10:19:10.229Z,11.40
2022-11-04T10:21:45.920Z,11.50
2022-11-04T10:24:15.564Z,11.40
2022-11-04T10:26:44.824Z,11.40
2022-11-04T10:29:16.621Z,11.40
2022-11-04T10:31:46.188Z,11.50
2022-11-04T10:34:38.468Z,11.50
2022-11-04T10:37:15.084Z,11.40
2022-11-04T10:39:45.235Z,11.50
2022-11-04T10:42:14.411Z,11.40
2022-11-04T10:44:41.287Z,11.50
2022-11-04T10:47:08.049Z,11.50
2022-11-04T10:50:26.993Z,11.40
2022-11-04T10:52:47.840Z,11.30
2022-11-04T10:55:35.442Z,11.40
2022-11-04T10:58:03.066Z,11.40
2022-11-04T11:00:39.307Z,11.40
2022-11-04T11:03:26.888Z,11.30
2022-11-04T11:06:09.197Z,11.40
2022-11-04T11:08:37.423Z,11.30
2022-11-04T11:11:06.561Z,11.40
2022-11-04T11:13:42.948Z,11.30
2022-11-04T11:16:19.229Z,11.30
2022-11-04T11:19:08.711Z,11.30
2022-11-04T11:21:44.642Z,11.50
2022-11-04T11:24:26.766Z,11.60
2022-11-04T11:26:56.359Z,11.50
2022-11-04T11:29:28.477Z,11.60
2022-11-04T11:31:56.748Z,11.60
2022-11-04T11:34:37.206Z,11.60
2022-11-04T11:37:05.242Z,11.50
2022-11-04T11:39:34.624Z,11.70
2022-11-04T11:42:27.539Z,11.80
2022-11-04T11:44:56.809Z,12.00
2022-11-04T11:47:42.303Z,12.10
2022-11-04T11:50:19.615Z,12.00
2022-11-04T11:52:48.218Z,12.10
2022-11-04T11:55:20.775Z,12.10
2022-11-04T12:01:24.149Z,12.10
2022-11-04T12:10:29.873Z,12.40
2022-11-04T12:13:40.712Z,12.20
2022-11-04T12:16:19.496Z,12.30
2022-11-04T12:19:32.353Z,12.50
2022-11-04T12:22:46.439Z,12.40
2022-11-04T12:25:31.178Z,12.50
2022-11-04T12:28:09.536Z,12.50
2022-11-04T12:30:51.113Z,12.50
2022-11-04T12:33:33.599Z,12.60
2022-11-04T12:36:09.024Z,12.50
2022-11-04T12:39:00.098Z,12.50
2022-11-04T12:45:22.347Z,12.50
2022-11-04T12:47:49.545Z,12.50
2022-11-04T12:50:34.405Z,12.50
2022-11-04T12:53:17.352Z,12.40
2022-11-04T12:55:57.841Z,12.50
2022-11-04T12:58:24.699Z,12.50
2022-11-04T13:01:00.820Z,12.50
2022-11-04T13:03:53.734Z,12.60
2022-11-04T13:06:42.179Z,12.60
2022-11-04T13:09:14.921Z,12.60
2022-11-04T13:12:28.338Z,12.60
2022-11-04T13:15:01.449Z,12.50
2022-11-04T13:17:39.228Z,12.50
2022-11-04T13:20:13.982Z,12.50
2022-11-04T13:22:45.575Z,12.50
2022-11-04T13:25:35.052Z,12.30
2022-11-04T13:28:03.167Z,12.30
2022-11-04T13:30:51.581Z,12.20
2022-11-04T13:33:37.968Z,12.20
2022-11-04T13:36:24.468Z,12.20
2022-11-04T13:38:56.374Z,12.30
2022-11-04T13:41:48.590Z,12.30
2022-11-04T13:44:24.767Z,12.40
2022-11-04T13:46:55.498Z,12.40
2022-11-04T13:49:30.614Z,12.40
2022-11-04T13:52:07.107Z,12.30
2022-11-04T13:54:54.345Z,12.40
2022-11-04T13:57:33.498Z,12.30
2022-11-04T14:00:15.324Z,12.40
2022-11-04T14:02:45.136Z,12.40
2022-11-04T14:05:24.043Z,12.30
2022-11-04T14:08:02.426Z,12.30
2022-11-04T14:10:47.141Z,12.40
2022-11-04T14:13:34.040Z,12.40
2022-11-04T14:16:09.661Z,12.50
2022-11-04T14:18:42.192Z,12.40
2022-11-04T14:21:12.995Z,12.40
2022-11-04T14:23:42.790Z,12.30
2022-11-04T14:26:12.558Z,12.30
2022-11-04T14:28:42.868Z,12.30
2022-11-04T14:31:17.186Z,12.40
2022-11-04T14:33:53.623Z,12.30
2022-11-04T14:36:20.582Z,12.20
2022-11-04T14:39:02.233Z,12.30
2022-11-04T14:41:28.869Z,12.30
2022-11-04T14:43:59.885Z,12.30
2022-11-04T14:46:31.270Z,12.30
2022-11-04T14:49:01.207Z,12.20
2022-11-04T14:51:29.330Z,12.20
2022-11-04T14:54:10.679Z,12.20
2022-11-04T14:56:37.370Z,12.20
2022-11-04T14:59:06.908Z,12.20
2022-11-04T15:01:40.453Z,12.10
2022-11-04T15:04:29.568Z,12.10
2022-11-04T15:06:58.588Z,12.10
2022-11-04T15:09:28.904Z,12.10
2022-11-04T15:12:40.948Z,12.10
2022-11-04T15:15:26.864Z,12.00
2022-11-04T15:18:18.122Z,11.90
2022-11-04T15:20:54.346Z,11.90
2022-11-04T15:23:30.046Z,11.90
2022-11-04T15:25:58.273Z,11.90
2022-11-04T15:28:45.082Z,11.80
2022-11-04T15:31:11.695Z,11.70
2022-11-04T15:33:46.825Z,11.80
2022-11-04T15:36:37.323Z,11.70
2022-11-04T15:39:24.120Z,11.70
2022-11-04T15:42:14.287Z,11.50
2022-11-04T15:44:46.468Z,11.40
2022-11-04T15:47:19.163Z,11.40
2022-11-04T15:49:47.232Z,11.30
2022-11-04T15:52:24.195Z,11.30
2022-11-04T15:54:53.551Z,11.20
2022-11-04T15:57:24.497Z,11.20
2022-11-04T16:00:02.105Z,11.20
2022-11-04T16:02:34.064Z,11.30
2022-11-04T16:05:11.637Z,11.20
2022-11-04T16:07:47.244Z,11.20
2022-11-04T16:10:30.439Z,11.00
2022-11-04T16:12:58.425Z,11.10
2022-11-04T16:15:40.016Z,11.10
2022-11-04T16:18:21.084Z,11.10
2022-11-04T16:20:48.645Z,11.00
2022-11-04T16:23:20.253Z,10.90
2022-11-04T16:25:47.207Z,10.90
2022-11-04T16:28:20.866Z,11.00
2022-11-04T16:31:02.529Z,10.90
2022-11-04T16:33:29.265Z,10.80
2022-11-04T16:35:55.938Z,10.90
2022-11-04T16:38:23.098Z,11.00
2022-11-04T16:40:50.403Z,11.00
2022-11-04T16:43:20.556Z,11.00
2022-11-04T16:45:53.598Z,11.00
2022-11-04T16:48:21.398Z,10.90
2022-11-04T16:50:49.018Z,10.90
2022-11-04T16:53:15.964Z,10.90
2022-11-04T16:55:44.464Z,10.90
2022-11-04T16:58:17.350Z,10.90
2022-11-04T17:00:44.579Z,11.00
2022-11-04T17:03:22.925Z,11.00
2022-11-04T17:05:56.874Z,11.10
2022-11-04T17:08:24.782Z,10.90
2022-11-04T17:10:52.099Z,10.90
2022-11-04T17:13:18.844Z,11.00
2022-11-04T17:15:45.586Z,10.90
2022-11-04T17:18:16.916Z,10.90
2022-11-04T17:20:46.679Z,10.80
2022-11-04T17:23:14.275Z,10.70
2022-11-04T17:25:41.541Z,10.60
2022-11-04T17:28:08.383Z,10.60
2022-11-04T17:30:35.487Z,10.50
2022-11-04T17:33:06.456Z,10.50
2022-11-04T17:35:44.591Z,10.60
2022-11-04T17:38:12.377Z,10.50
2022-11-04T17:40:59.317Z,10.40
2022-11-04T17:43:45.286Z,10.40
2022-11-04T17:46:31.900Z,10.20
2022-11-04T17:48:59.070Z,10.30
2022-11-04T17:51:26.169Z,10.20
2022-11-04T17:53:52.978Z,10.20
2022-11-04T17:56:22.559Z,10.20
2022-11-04T17:58:50.239Z,10.20
2022-11-04T18:01:20.293Z,10.30
2022-11-04T18:03:47.398Z,10.20
2022-11-04T18:06:14.210Z,10.20
2022-11-04T18:08:40.972Z,10.20
2022-11-04T18:11:10.861Z,10.10
2022-11-04T18:13:37.813Z,10.20
2022-11-04T18:16:12.074Z,10.20
2022-11-04T18:18:39.483Z,10.30
2022-11-04T18:21:08.407Z,10.30
2022-11-04T18:23:35.318Z,10.20
2022-11-04T18:26:02.973Z,9.90
2022-11-04T18:28:29.709Z,10.10
2022-11-04T18:30:56.423Z,10.10
2022-11-04T18:33:23.131Z,10.10
2022-11-04T18:35:49.778Z,10.20
2022-11-04T18:38:16.431Z,10.20
2022-11-04T18:40:43.702Z,10.20
2022-11-04T18:43:10.572Z,10.30
2022-11-04T18:45:37.547Z,10.30
2022-11-04T18:48:04.870Z,10.20
2022-11-04T18:50:32.089Z,10.20
2022-11-04T18:52:58.747Z,10.20
2022-11-04T18:55:25.471Z,10.20
2022-11-04T18:57:55.697Z,10.20
2022-11-04T19:00:22.648Z,10.20
2022-11-04T19:02:49.436Z,10.10
2022-11-04T19:05:16.716Z,10.20
2022-11-04T19:07:44.088Z,10.20
2022-11-04T19:10:12.136Z,10.20
2022-11-04T19:12:57.799Z,10.20
2022-11-04T19:15:25.391Z,10.30
2022-11-04T19:17:52.282Z,10.30
2022-11-04T19:20:19.065Z,10.30
2022-11-04T19:22:46.031Z,10.30
2022-11-04T19:25:12.773Z,10.30
2022-11-04T19:27:39.521Z,10.30
2022-11-04T19:30:06.751Z,10.30
2022-11-04T19:32:33.438Z,10.20
2022-11-04T19:35:00.244Z,10.20
2022-11-04T19:37:27.773Z,10.30
2022-11-04T19:39:54.430Z,10.40
2022-11-04T19:42:39.953Z,10.30
2022-11-04T19:45:07.111Z,10.30
2022-11-04T19:47:33.877Z,10.20
2022-11-04T19:50:00.628Z,10.30
2022-11-04T19:52:27.347Z,10.30
2022-11-04T19:54:54.448Z,10.40
2022-11-04T19:57:21.560Z,10.40
2022-11-04T19:59:49.156Z,10.30
2022-11-04T20:02:16.341Z,10.40
2022-11-04T20:04:43.189Z,10.40
2022-11-04T20:07:09.866Z,10.40
2022-11-04T20:09:36.513Z,10.40
2022-11-04T20:12:22.159Z,10.40
2022-11-04T20:14:48.802Z,10.40
2022-11-04T20:17:15.512Z,10.30
2022-11-04T20:19:42.171Z,10.30
2022-11-04T20:22:09.013Z,10.30
2022-11-04T20:24:35.688Z,10.20
2022-11-04T20:27:02.542Z,10.30
2022-11-04T20:29:29.261Z,10.30
2022-11-04T20:31:56.061Z,10.30
2022-11-04T20:34:22.792Z,10.40
2022-11-04T20:36:49.538Z,10.40
2022-11-04T20:39:19.021Z,10.40
2022-11-04T20:41:46.842Z,10.40
2022-11-04T20:44:15.192Z,10.50
2022-11-04T20:46:43.038Z,10.40
2022-11-04T20:49:10.591Z,10.50
2022-11-04T20:51:48.636Z,10.40
2022-11-04T20:54:16.172Z,10.40
2022-11-04T20:56:44.368Z,10.50
2022-11-04T20:59:13.629Z,10.40
2022-11-04T21:01:43.462Z,10.50
2022-11-04T21:04:18.143Z,10.50
2022-11-04T21:06:45.769Z,10.50
2022-11-04T21:09:15.860Z,10.40
2022-11-04T21:11:43.369Z,10.50
2022-11-04T21:14:13.156Z,10.40
2022-11-04T21:16:40.599Z,10.50
2022-11-04T21:19:08.091Z,10.50
2022-11-04T21:21:34.843Z,10.50
2022-11-04T21:24:04.415Z,10.50
2022-11-04T21:26:34.227Z,10.50
2022-11-04T21:29:05.985Z,10.40
2022-11-04T21:31:34.745Z,10.40
2022-11-04T21:34:01.980Z,10.40
2022-11-04T21:36:28.801Z,10.40
2022-11-04T21:38:55.857Z,10.30
2022-11-04T21:41:25.913Z,10.40
2022-11-04T21:43:57.424Z,10.40
2022-11-04T21:46:25.071Z,10.30
2022-11-04T21:48:51.813Z,10.30
2022-11-04T21:51:22.876Z,10.30
2022-11-04T21:53:49.715Z,10.30
2022-11-04T21:56:23.147Z,10.30
2022-11-04T21:58:51.931Z,10.40
2022-11-04T22:01:21.112Z,10.30
2022-11-04T22:03:53.290Z,10.40
2022-11-04T22:06:20.351Z,10.40
2022-11-04T22:08:49.291Z,10.40
2022-11-04T22:11:19.079Z,10.40
2022-11-04T22:13:46.274Z,10.40
2022-11-04T22:16:15.786Z,10.30
2022-11-04T22:18:42.500Z,10.30
2022-11-04T22:21:15.014Z,10.30
2022-11-04T22:23:42.911Z,10.30
2022-11-04T22:26:24.853Z,10.30
2022-11-04T22:28:52.432Z,10.30
2022-11-04T22:31:22.005Z,10.30
2022-11-04T22:33:50.072Z,10.30
2022-11-04T22:36:17.103Z,10.20
2022-11-04T22:38:44.119Z,10.20
2022-11-04T22:41:13.501Z,10.20
2022-11-04T22:43:40.339Z,10.20
2022-11-04T22:46:20.312Z,10.20
2022-11-04T22:48:47.238Z,10.20
2022-11-04T22:51:14.689Z,10.30
2022-11-04T22:53:41.789Z,10.20
2022-11-04T22:56:11.125Z,10.20
2022-11-04T22:58:38.249Z,10.30
2022-11-04T23:01:11.093Z,10.20
2022-11-04T23:03:39.290Z,10.10
2022-11-04T23:06:07.649Z,10.00
2022-11-04T23:08:36.122Z,10.00
2022-11-04T23:11:34.133Z,10.00
2022-11-04T23:14:21.022Z,10.00
2022-11-04T23:17:08.846Z,10.10
2022-11-04T23:19:36.829Z,10.10
2022-11-04T23:22:22.183Z,10.10
2022-11-04T23:25:09.200Z,10.10
2022-11-04T23:28:01.830Z,10.10
2022-11-04T23:30:33.118Z,10.00
2022-11-04T23:33:02.276Z,9.90
2022-11-04T23:35:50.534Z,10.00
2022-11-04T23:38:17.557Z,9.90
2022-11-04T23:41:08.193Z,10.00
2022-11-04T23:43:35.724Z,10.00
2022-11-04T23:46:21.204Z,10.00
2022-11-04T23:49:26.493Z,10.00
2022-11-04T23:52:11.938Z,10.00
2022-11-04T23:54:57.385Z,10.00
2022-11-04T23:57:42.908Z,10.00
